Time;durP1;ratioP1;P1;durP2;ratioP2;P2;SDS_P1;SDS_P2;PMS_P1;PMS_P2;Temp;Humidity;BMP_temperature;BMP_pressure;BME280_temperature;BME280_humidity;BME280_pressure;Samples;Min_cycle;Max_cycle;Signal;HPM_P1;HPM_P2
2022/08/22 00:01:55;;;;;;;8.15;5.28;;;;;;;20.33;89.11;94199.22;5112135;28;20212;-75
2022/08/22 00:04:38;;;;;;;10.27;4.75;;;;;;;20.33;89.24;94192.00;5112146;28;20184;-75
2022/08/22 00:07:31;;;;;;;9.68;4.85;;;;;;;20.42;88.86;94197.53;5121163;27;20196;-75
2022/08/22 00:09:59;;;;;;;8.07;4.55;;;;;;;20.48;88.34;94193.72;5112029;28;20184;-75
2022/08/22 00:12:48;;;;;;;6.78;4.68;;;;;;;20.57;88.38;94199.22;5117294;27;20172;-75
2022/08/22 00:15:32;;;;;;;7.88;4.75;;;;;;;20.63;88.17;94201.53;5132539;27;20658;-75
2022/08/22 00:18:10;;;;;;;7.70;5.60;;;;;;;20.55;87.32;94179.97;5132640;27;20232;-75
2022/08/22 00:21:01;;;;;;;8.25;5.30;;;;;;;20.54;87.45;94195.22;5132479;27;20673;-75
2022/08/22 00:23:37;;;;;;;7.90;5.78;;;;;;;20.58;87.96;94195.47;5114721;27;20189;-75
2022/08/22 00:26:08;;;;;;;7.38;5.40;;;;;;;20.47;88.12;94167.25;5132726;27;20195;-76
2022/08/22 00:28:48;;;;;;;12.77;5.63;;;;;;;20.65;88.10;94194.00;5132616;27;20179;-76
2022/08/22 00:31:35;;;;;;;10.57;6.25;;;;;;;20.70;87.85;94185.91;5132647;27;20184;-76
2022/08/22 00:34:07;;;;;;;10.80;6.88;;;;;;;20.68;87.22;94188.06;5133233;27;20881;-75
2022/08/22 00:37:05;;;;;;;9.02;7.40;;;;;;;20.64;87.38;94187.06;5132338;27;20181;-76
2022/08/22 00:39:37;;;;;;;10.75;7.20;;;;;;;20.55;88.09;94188.81;5112187;28;20173;-76
2022/08/22 00:42:15;;;;;;;9.82;7.15;;;;;;;20.52;87.46;94185.91;5111950;28;20208;-76
2022/08/22 00:45:17;;;;;;;9.10;6.47;;;;;;;20.56;87.76;94192.28;5111661;28;20176;-75
2022/08/22 00:48:15;;;;;;;10.00;7.60;;;;;;;20.56;87.55;94186.91;5114925;27;20648;-75
2022/08/22 00:51:06;;;;;;;10.07;7.35;;;;;;;20.48;88.11;94168.84;5132011;27;20715;-76
2022/08/22 00:54:16;;;;;;;9.32;7.10;;;;;;;20.51;87.94;94173.59;5122290;27;20173;-76
2022/08/22 00:57:08;;;;;;;13.13;7.55;;;;;;;20.51;87.98;94174.41;5048968;28;20285;-75
2022/08/22 00:59:46;;;;;;;11.65;7.80;;;;;;;20.54;88.00;94173.84;5049025;28;20183;-75
2022/08/22 01:02:33;;;;;;;10.02;7.50;;;;;;;20.54;87.62;94167.69;5080845;28;20217;-75
2022/08/22 01:05:06;;;;;;;11.50;7.72;;;;;;;20.54;87.68;94170.38;5091063;28;20270;-75
2022/08/22 01:07:43;;;;;;;9.00;7.60;;;;;;;20.51;87.77;94169.06;5072915;28;20169;-75
2022/08/22 01:10:15;;;;;;;12.57;8.10;;;;;;;20.35;88.65;94175.69;5090801;28;20656;-75
2022/08/22 01:12:49;;;;;;;13.65;8.25;;;;;;;20.26;88.58;94175.50;5090896;28;20733;-75
2022/08/22 01:15:21;;;;;;;12.25;8.30;;;;;;;20.24;89.00;94158.16;5077257;28;20677;-75
2022/08/22 01:17:53;;;;;;;11.43;7.47;;;;;;;20.29;89.50;94166.94;5114989;28;20184;-75
2022/08/22 01:20:34;;;;;;;12.32;8.35;;;;;;;20.32;89.25;94166.34;5115423;28;20274;-75
2022/08/22 01:23:18;;;;;;;12.57;8.30;;;;;;;20.26;88.77;94175.50;5115337;28;20172;-75
2022/08/22 01:26:15;;;;;;;10.18;7.65;;;;;;;20.13;89.23;94167.41;5115386;28;20252;-75
2022/08/22 01:29:19;;;;;;;10.48;7.90;;;;;;;20.16;89.48;94175.66;5110242;28;20244;-75
2022/08/22 01:32:02;;;;;;;13.18;7.93;;;;;;;20.24;89.42;94174.22;5107307;28;20704;-75
2022/08/22 01:35:00;;;;;;;13.52;8.35;;;;;;;20.28;89.25;94177.91;5115255;28;20203;-75
2022/08/22 01:37:31;;;;;;;13.38;7.38;;;;;;;20.37;88.90;94186.13;5114194;28;20216;-75
2022/08/22 01:40:18;;;;;;;10.15;7.15;;;;;;;20.39;88.51;94187.41;5114730;28;20200;-75
2022/08/22 01:43:15;;;;;;;12.43;7.95;;;;;;;20.36;88.08;94179.16;5115048;28;20543;-75
2022/08/22 01:45:49;;;;;;;13.75;7.35;;;;;;;20.26;88.39;94182.75;5105863;28;20588;-75
2022/08/22 01:48:19;;;;;;;10.60;7.82;;;;;;;20.13;89.43;94186.94;5094397;28;20223;-75
2022/08/22 01:50:48;;;;;;;12.20;7.93;;;;;;;20.21;89.43;94180.94;5094031;28;20205;-75
2022/08/22 01:53:37;;;;;;;10.98;7.93;;;;;;;20.26;88.89;94178.19;5093981;28;20260;-75
2022/08/22 01:56:12;;;;;;;12.23;8.02;;;;;;;20.29;88.45;94182.19;5093853;28;20181;-75
2022/08/22 01:59:01;;;;;;;14.52;8.05;;;;;;;20.30;88.24;94178.44;5093811;28;20209;-75
2022/08/22 02:01:32;;;;;;;12.02;7.47;;;;;;;20.26;88.93;94182.75;5104698;28;20301;-75
2022/08/22 02:03:57;;;;;;;14.50;8.40;;;;;;;20.26;88.74;94174.72;5124761;27;20177;-75
2022/08/22 02:06:35;;;;;;;11.32;8.02;;;;;;;20.28;88.55;94172.56;5122289;27;20184;-75
2022/08/22 02:09:24;;;;;;;13.13;8.45;;;;;;;20.27;88.35;94179.00;5114195;28;20177;-75
2022/08/22 02:11:55;;;;;;;12.00;8.10;;;;;;;20.20;88.55;94174.00;5127432;27;20176;-75
2022/08/22 02:14:43;;;;;;;14.43;8.80;;;;;;;20.01;89.00;94180.38;5134903;27;20278;-75
2022/08/22 02:17:24;;;;;;;15.55;9.27;;;;;;;19.81;89.86;94182.22;5116237;27;20242;-75
2022/08/22 02:20:24;;;;;;;17.33;8.75;;;;;;;19.74;90.70;94176.41;5117737;27;20177;-75
2022/08/22 02:23:24;;;;;;;13.95;8.90;;;;;;;19.81;90.38;94181.41;5110536;28;20193;-75
2022/08/22 02:26:02;;;;;;;13.90;8.88;;;;;;;19.85;90.18;94182.44;5110998;28;20195;-75
2022/08/22 02:28:58;;;;;;;14.68;8.80;;;;;;;19.82;89.88;94183.00;5114357;28;20202;-74
2022/08/22 02:31:54;;;;;;;13.60;8.48;;;;;;;19.81;90.06;94182.22;5113889;28;20180;-75
2022/08/22 02:34:25;;;;;;;14.90;9.38;;;;;;;19.68;90.05;94182.91;5122854;27;20177;-74
2022/08/22 02:37:16;;;;;;;17.27;9.77;;;;;;;19.70;89.86;94182.63;5113721;28;20196;-75
2022/08/22 02:40:02;;;;;;;13.10;9.13;;;;;;;19.63;89.66;94158.94;5113754;28;20651;-74
2022/08/22 02:42:55;;;;;;;16.17;9.38;;;;;;;19.76;89.07;94181.47;5131541;27;20187;-74
2022/08/22 02:45:25;;;;;;;15.02;9.32;;;;;;;19.66;89.20;94179.72;5134240;27;20598;-74
2022/08/22 02:48:14;;;;;;;13.57;8.95;;;;;;;19.65;89.90;94182.66;5133877;27;20175;-75
2022/08/22 02:50:49;;;;;;;15.40;9.75;;;;;;;19.55;89.26;94159.53;5127501;27;20180;-74
2022/08/22 02:54:01;;;;;;;14.32;8.77;;;;;;;19.74;88.88;94180.97;5115458;27;20629;-74
2022/08/22 02:56:35;;;;;;;13.30;8.77;;;;;;;19.50;89.11;94163.06;5134242;27;20246;-74
2022/08/22 02:59:19;;;;;;;14.40;9.50;;;;;;;19.61;88.74;94195.00;5133786;27;20196;-74
2022/08/22 03:01:46;;;;;;;16.90;10.07;;;;;;;19.55;89.30;94186.22;5133506;27;20226;-74
2022/08/22 03:04:29;;;;;;;13.15;8.80;;;;;;;19.59;88.59;94190.75;5133652;27;20187;-74
2022/08/22 03:07:13;;;;;;;17.95;9.02;;;;;;;19.64;88.56;94186.41;5118592;27;20205;-74
2022/08/22 03:09:55;;;;;;;17.20;9.68;;;;;;;19.64;88.27;94181.88;5112852;28;20268;-74
2022/08/22 03:12:25;;;;;;;19.15;9.68;;;;;;;19.55;88.16;94189.69;5113143;28;20659;-74
2022/08/22 03:15:02;;;;;;;15.68;9.02;;;;;;;19.49;88.31;94201.53;5113044;28;20180;-74
2022/08/22 03:17:33;;;;;;;14.05;8.77;;;;;;;19.43;88.81;94201.81;5113266;28;20266;-74
2022/08/22 03:20:20;;;;;;;16.50;9.07;;;;;;;19.22;89.39;94199.34;5112926;28;20234;-74
2022/08/22 03:23:16;;;;;;;17.05;9.88;;;;;;;19.22;89.57;94190.53;5120588;27;20187;-74
2022/08/22 03:25:55;;;;;;;13.57;8.77;;;;;;;19.18;90.06;94200.97;5112501;28;20177;-74
2022/08/22 03:28:51;;;;;;;13.63;9.00;;;;;;;19.03;90.13;94187.75;5131207;27;20173;-75
2022/08/22 03:31:25;;;;;;;14.30;8.90;;;;;;;19.19;89.45;94199.13;5123677;27;20196;-75
2022/08/22 03:34:21;;;;;;;12.13;7.60;;;;;;;19.21;89.45;94195.06;5112781;28;20179;-75
2022/08/22 03:37:03;;;;;;;16.65;8.63;;;;;;;19.30;88.74;94205.13;5115428;27;20242;-75
2022/08/22 03:39:43;;;;;;;15.60;9.35;;;;;;;19.31;88.22;94196.06;5111952;28;20181;-75
2022/08/22 03:42:15;;;;;;;13.93;9.25;;;;;;;19.30;88.63;94192.59;5114627;27;20177;-75
2022/08/22 03:44:46;;;;;;;15.75;9.52;;;;;;;19.22;89.00;94195.88;5119535;27;20176;-75
2022/08/22 03:47:20;;;;;;;14.68;8.88;;;;;;;19.15;89.37;94190.88;5124087;27;20177;-75
2022/08/22 03:50:03;;;;;;;15.48;9.00;;;;;;;19.08;89.53;94184.25;5129581;27;20255;-75
2022/08/22 03:53:06;;;;;;;13.02;8.60;;;;;;;19.14;90.01;94193.81;5115944;27;20680;-75
2022/08/22 03:55:39;;;;;;;14.55;9.77;;;;;;;19.22;89.41;94188.66;5122392;27;20591;-75
2022/08/22 03:58:17;;;;;;;14.18;9.02;;;;;;;19.28;89.45;94193.97;5132876;27;20298;-75
2022/08/22 04:01:20;;;;;;;12.23;9.25;;;;;;;19.33;89.04;94188.56;5120951;27;20273;-75
2022/08/22 04:04:24;;;;;;;13.55;9.05;;;;;;;19.35;88.65;94178.41;5089990;27;20208;-76
2022/08/22 04:07:18;;;;;;;18.50;12.68;;;;;;;19.39;89.57;94192.78;5118426;27;20180;-76
2022/08/22 04:09:49;;;;;;;19.85;12.57;;;;;;;19.40;89.37;94187.16;5132366;27;20199;-75
2022/08/22 04:12:42;;;;;;;31.88;19.50;;;;;;;19.41;90.14;94187.97;5116476;27;20214;-74
2022/08/22 04:15:51;;;;;;;29.20;18.40;;;;;;;19.59;89.67;94198.75;5131081;27;20177;-74
2022/08/22 04:18:40;;;;;;;27.13;17.15;;;;;;;19.71;89.07;94193.03;5022000;28;20224;-74
2022/08/22 04:21:53;;;;;;;25.48;15.98;;;;;;;19.87;88.63;94188.31;5121326;27;20181;-74
2022/08/22 04:24:39;;;;;;;18.48;11.80;;;;;;;19.92;87.75;94199.72;5048076;28;20941;-77
2022/08/22 04:27:14;;;;;;;14.98;10.05;;;;;;;20.03;87.11;94199.59;5048770;28;20179;-74
2022/08/22 04:30:00;;;;;;;16.77;9.80;;;;;;;20.05;87.36;94200.13;5104020;27;20244;-74
2022/08/22 04:32:51;;;;;;;21.45;14.05;;;;;;;19.95;87.33;94177.00;5132169;27;20176;-74
2022/08/22 04:35:31;;;;;;;17.23;10.75;;;;;;;20.12;87.01;94192.56;5132022;27;20176;-74
2022/08/22 04:38:08;;;;;;;30.02;18.13;;;;;;;19.97;87.50;94180.19;5131846;27;20279;-74
2022/08/22 04:40:42;;;;;;;19.02;11.35;;;;;;;20.14;88.17;94198.41;5109425;27;20180;-75
2022/08/22 04:43:45;;;;;;;18.95;12.52;;;;;;;20.18;87.85;94202.09;5129478;27;20188;-75
2022/08/22 04:46:37;;;;;;;19.27;10.52;;;;;;;20.22;87.72;94201.25;5126771;27;20191;-75
2022/08/22 04:49:36;;;;;;;14.80;9.57;;;;;;;20.30;87.42;94205.97;5132414;27;20164;-75
2022/08/22 04:52:26;;;;;;;14.98;9.95;;;;;;;20.36;87.07;94200.56;5118548;27;20249;-75
2022/08/22 04:55:29;;;;;;;16.60;11.30;;;;;;;20.37;87.27;94202.94;5117867;27;20179;-74
2022/08/22 04:58:06;;;;;;;21.67;12.98;;;;;;;20.40;87.09;94210.41;5111434;27;20346;-74
2022/08/22 05:00:40;;;;;;;18.38;11.05;;;;;;;20.53;87.30;94209.69;5121226;27;20273;-74
2022/08/22 05:03:13;;;;;;;22.23;14.77;;;;;;;20.57;87.34;94197.34;5110989;28;20305;-74
2022/08/22 05:05:41;;;;;;;17.92;11.38;;;;;;;20.86;86.44;94207.88;5110976;28;20546;-74
2022/08/22 05:08:12;;;;;;;33.03;21.05;;;;;;;20.93;85.72;94213.63;5110705;28;20204;-74
2022/08/22 05:10:44;;;;;;;22.17;12.73;;;;;;;21.01;84.66;94222.91;5110822;28;20562;-74
2022/08/22 05:13:18;;;;;;;20.27;13.00;;;;;;;20.95;84.39;94205.31;5127466;28;20180;-74
2022/08/22 05:15:48;;;;;;;10.60;8.30;;;;;;;21.18;84.46;94225.91;5120468;28;20169;-75
2022/08/22 05:18:24;;;;;;;18.08;11.40;;;;;;;21.23;85.19;94236.50;5110842;28;20204;-74
2022/08/22 05:20:52;;;;;;;16.40;8.48;;;;;;;21.16;84.27;94217.31;5128722;28;20172;-75
2022/08/22 05:23:25;;;;;;;14.98;8.38;;;;;;;21.37;84.75;94229.31;5110945;28;20177;-74
2022/08/22 05:25:55;;;;;;;17.45;10.00;;;;;;;21.39;84.38;94227.13;5114731;28;20568;-74
2022/08/22 05:28:35;;;;;;;21.67;14.52;;;;;;;21.40;83.28;94234.09;5126854;28;20245;-74
2022/08/22 05:31:12;;;;;;;13.40;9.85;;;;;;;21.39;84.00;94237.84;5120048;28;20177;-74
2022/08/22 05:33:37;;;;;;;18.13;10.75;;;;;;;21.43;84.13;94233.50;5119157;28;20180;-76
2022/08/22 05:36:08;;;;;;;15.95;9.93;;;;;;;21.36;83.98;94217.00;5111549;28;20200;-75
2022/08/22 05:38:40;;;;;;;16.98;10.60;;;;;;;21.34;83.76;94219.19;5110476;28;20269;-75
2022/08/22 05:41:15;;;;;;;13.20;9.68;;;;;;;21.52;83.25;94246.22;5110802;28;20177;-74
2022/08/22 05:43:44;;;;;;;17.85;9.85;;;;;;;21.30;83.56;94220.06;5110850;28;20181;-74
2022/08/22 05:46:19;;;;;;;14.27;9.27;;;;;;;21.52;82.51;94249.69;5110617;28;20176;-75
2022/08/22 05:48:58;;;;;;;12.88;8.30;;;;;;;21.46;83.50;94235.56;5111007;28;20176;-75
2022/08/22 05:51:47;;;;;;;12.35;8.70;;;;;;;21.51;84.24;94255.34;5110036;28;20173;-74
2022/08/22 05:54:19;;;;;;;14.52;8.65;;;;;;;21.50;84.28;94261.78;5109776;28;20177;-75
2022/08/22 05:56:59;;;;;;;11.70;8.15;;;;;;;21.28;84.79;94244.44;5121150;28;20200;-75
2022/08/22 05:59:31;;;;;;;12.75;8.80;;;;;;;21.49;84.73;94269.03;5123000;28;20255;-75
2022/08/22 06:02:06;;;;;;;15.32;8.95;;;;;;;21.55;83.38;94283.13;5110066;28;20224;-75
2022/08/22 06:04:38;;;;;;;12.05;8.27;;;;;;;21.56;82.64;94268.63;5113238;28;20169;-75
2022/08/22 06:07:22;;;;;;;13.48;8.48;;;;;;;21.67;82.45;94275.44;5113298;28;20702;-75
2022/08/22 06:09:47;;;;;;;14.38;9.45;;;;;;;21.75;82.98;94277.44;5114011;28;20176;-75
2022/08/22 06:12:21;;;;;;;14.10;8.20;;;;;;;21.84;83.54;94271.09;5114199;28;20176;-75
2022/08/22 06:15:02;;;;;;;11.95;8.57;;;;;;;21.95;82.19;94271.72;5114193;28;20173;-75
2022/08/22 06:17:35;;;;;;;13.75;8.27;;;;;;;21.79;81.24;94271.16;5114080;28;20193;-75
2022/08/22 06:20:01;;;;;;;12.32;7.53;;;;;;;21.88;81.74;94271.28;5114064;28;20173;-75
2022/08/22 06:22:33;;;;;;;13.10;8.02;;;;;;;21.94;82.18;94275.50;5113887;28;20177;-75
2022/08/22 06:25:12;;;;;;;11.93;7.85;;;;;;;22.06;82.06;94273.13;5114122;28;20177;-75
2022/08/22 06:27:38;;;;;;;13.27;8.60;;;;;;;22.04;81.00;94275.34;5113995;28;20164;-74
2022/08/22 06:30:05;;;;;;;11.77;7.70;;;;;;;21.90;81.02;94284.41;5113863;28;20200;-75
2022/08/22 06:32:36;;;;;;;9.85;7.32;;;;;;;21.87;81.54;94277.75;5113777;28;20177;-75
2022/08/22 06:35:07;;;;;;;10.23;7.55;;;;;;;21.58;80.78;94287.91;5113644;28;20254;-75
2022/08/22 06:37:39;;;;;;;8.98;6.97;;;;;;;21.66;81.93;94265.78;5113369;28;20334;-75
2022/08/22 06:40:09;;;;;;;9.70;7.07;;;;;;;22.19;84.63;94258.97;5113804;28;20177;-75
2022/08/22 06:42:43;;;;;;;12.32;7.88;;;;;;;22.97;81.70;94280.47;5113680;28;20193;-75
2022/08/22 06:45:15;;;;;;;11.48;7.15;;;;;;;23.37;78.27;94281.41;5125067;27;20258;-75
2022/08/22 06:47:52;;;;;;;11.57;8.05;;;;;;;23.65;75.05;94288.31;5100858;28;20176;-76
2022/08/22 06:50:25;;;;;;;11.63;8.10;;;;;;;23.77;74.50;94290.44;5113393;28;20177;-75
2022/08/22 06:53:05;;;;;;;10.30;7.00;;;;;;;23.66;73.78;94288.00;5113525;28;20173;-75
2022/08/22 06:55:35;;;;;;;9.65;6.97;;;;;;;23.90;73.94;94286.88;5113881;28;20283;-75
2022/08/22 06:58:10;;;;;;;10.07;6.65;;;;;;;23.99;74.04;94287.72;5113447;28;20236;-75
2022/08/22 07:00:41;;;;;;;10.95;6.65;;;;;;;23.86;73.11;94272.47;5094769;28;20197;-75
2022/08/22 07:03:16;;;;;;;11.65;7.35;;;;;;;23.76;72.77;94296.91;5121848;27;20181;-75
2022/08/22 07:05:42;;;;;;;9.48;6.45;;;;;;;23.42;74.56;94292.84;5113317;28;20724;-76
2022/08/22 07:08:15;;;;;;;8.68;6.10;;;;;;;23.39;73.92;94284.59;5113634;28;20198;-75
2022/08/22 07:10:44;;;;;;;7.90;5.43;;;;;;;23.28;71.24;94271.41;5113222;28;20234;-75
2022/08/22 07:13:15;;;;;;;12.80;6.13;;;;;;;23.34;72.55;94296.28;5112852;28;20237;-75
2022/08/22 07:15:41;;;;;;;8.02;6.25;;;;;;;22.97;72.18;94264.34;5112905;28;20177;-76
2022/08/22 07:18:20;;;;;;;12.55;5.75;;;;;;;23.09;72.76;94296.84;5112830;28;20193;-75
2022/08/22 07:20:52;;;;;;;9.75;6.47;;;;;;;23.11;74.81;94297.31;5113023;28;20176;-75
2022/08/22 07:23:35;;;;;;;12.32;6.28;;;;;;;23.24;74.92;94296.50;5113294;28;20652;-75
2022/08/22 07:26:28;;;;;;;11.10;6.57;;;;;;;23.31;74.57;94302.25;5112887;28;20328;-75
2022/08/22 07:29:04;;;;;;;9.68;6.15;;;;;;;23.59;75.40;94298.38;5112529;28;20196;-75
2022/08/22 07:31:57;;;;;;;9.50;7.00;;;;;;;24.05;74.95;94306.09;5112693;28;20179;-75
2022/08/22 07:34:45;;;;;;;9.98;6.45;;;;;;;24.55;70.51;94305.88;5112803;28;20243;-76
2022/08/22 07:37:24;;;;;;;10.95;6.78;;;;;;;24.75;70.93;94301.81;5112729;28;20195;-76
2022/08/22 07:39:56;;;;;;;12.20;6.63;;;;;;;24.86;68.95;94299.63;5122153;27;20187;-76
2022/08/22 07:42:45;;;;;;;12.15;6.65;;;;;;;24.91;67.45;94308.38;5111138;28;20172;-75
2022/08/22 07:45:19;;;;;;;8.80;6.50;;;;;;;24.90;66.51;94306.78;5102547;28;20271;-75
2022/08/22 07:48:07;;;;;;;7.68;6.32;;;;;;;24.66;67.13;94299.09;5112520;28;20244;-75
2022/08/22 07:50:44;;;;;;;8.93;6.13;;;;;;;24.48;67.68;94291.25;5112584;28;20233;-75
2022/08/22 07:53:39;;;;;;;8.73;6.00;;;;;;;24.81;69.37;94300.56;5125364;27;20214;-76
2022/08/22 07:56:15;;;;;;;10.25;6.38;;;;;;;25.06;68.85;94307.16;5123289;27;20192;-76
2022/08/22 07:58:44;;;;;;;9.35;6.57;;;;;;;25.18;68.45;94300.00;5132937;27;20274;-76
2022/08/22 08:01:15;;;;;;;9.85;6.43;;;;;;;25.21;66.33;94297.78;5132756;27;20208;-77
2022/08/22 08:03:46;;;;;;;8.93;7.20;;;;;;;25.35;68.33;94288.44;5124985;27;20667;-77
2022/08/22 08:06:12;;;;;;;9.57;6.15;;;;;;;25.90;66.45;94301.28;5128528;27;20217;-76
2022/08/22 08:08:43;;;;;;;11.15;6.55;;;;;;;26.12;63.34;94300.28;5132594;27;20251;-75
2022/08/22 08:11:12;;;;;;;9.38;6.47;;;;;;;26.36;65.19;94297.06;5132759;27;20277;-76
2022/08/22 08:13:42;;;;;;;16.10;7.88;;;;;;;26.82;62.82;94294.28;5132600;27;20176;-76
2022/08/22 08:16:16;;;;;;;10.68;7.45;;;;;;;27.38;62.48;94303.81;5114486;27;20173;-76
2022/08/22 08:18:47;;;;;;;9.45;6.32;;;;;;;27.74;58.01;94283.50;5119852;27;20199;-76
2022/08/22 08:21:26;;;;;;;7.75;5.75;;;;;;;27.89;57.30;94285.56;5132894;27;20200;-77
2022/08/22 08:23:53;;;;;;;11.57;6.45;;;;;;;27.83;59.08;94284.22;5123469;27;20255;-76
2022/08/22 08:26:28;;;;;;;10.30;7.10;;;;;;;27.86;56.19;94285.44;5115324;27;20181;-77
2022/08/22 08:28:57;;;;;;;10.93;6.43;;;;;;;27.84;60.41;94274.97;5128780;27;20584;-77
2022/08/22 08:31:23;;;;;;;10.18;6.88;;;;;;;28.37;58.58;94279.50;5123754;27;20168;-77
2022/08/22 08:33:56;;;;;;;9.52;6.50;;;;;;;28.57;55.47;94282.44;5132938;27;20172;-76
2022/08/22 08:36:53;;;;;;;12.70;7.57;;;;;;;27.84;57.28;94277.69;5132789;27;20183;-76
2022/08/22 08:39:27;;;;;;;9.55;6.97;;;;;;;27.66;57.55;94276.25;5115149;27;20193;-75
2022/08/22 08:42:10;;;;;;;17.02;6.60;;;;;;;27.76;59.12;94278.56;5123752;27;20226;-77
2022/08/22 08:44:57;;;;;;;13.75;6.80;;;;;;;28.08;55.82;94280.44;5116573;27;20177;-76
2022/08/22 08:47:28;;;;;;;7.20;5.72;;;;;;;28.22;55.91;94273.94;5111488;28;20184;-76
2022/08/22 08:50:12;;;;;;;12.00;8.65;;;;;;;28.38;56.80;94272.16;5126408;27;20241;-77
2022/08/22 08:53:04;;;;;;;11.90;6.25;;;;;;;28.09;55.45;94276.63;5115384;27;20542;-77
2022/08/22 08:55:58;;;;;;;12.07;6.78;;;;;;;27.41;56.51;94265.31;5097345;27;20635;-77
2022/08/22 08:58:49;;;;;;;14.02;7.88;;;;;;;27.22;58.11;94272.28;5111841;28;20283;-77
2022/08/22 09:01:40;;;;;;;12.30;8.82;;;;;;;27.28;58.81;94271.75;5114581;27;20223;-77
2022/08/22 09:04:38;;;;;;;11.38;6.22;;;;;;;27.11;57.39;94249.47;5095711;27;20207;-77
2022/08/22 09:07:24;;;;;;;11.73;8.77;;;;;;;27.05;57.78;94267.81;5124720;27;20164;-77
2022/08/22 09:10:22;;;;;;;15.35;9.30;;;;;;;26.88;58.69;94265.97;5111950;28;20177;-76
2022/08/22 09:12:51;;;;;;;11.60;7.75;;;;;;;26.93;60.46;94260.41;5111478;28;20180;-77
2022/08/22 09:15:33;;;;;;;10.18;6.40;;;;;;;27.00;60.18;94259.88;5124483;28;20172;-78
2022/08/22 09:18:25;;;;;;;8.38;6.50;;;;;;;27.35;59.34;94263.91;5114716;28;20617;-76
2022/08/22 09:21:32;;;;;;;10.77;6.55;;;;;;;27.35;55.97;94263.91;5112889;28;20177;-75
2022/08/22 09:24:27;;;;;;;8.40;6.85;;;;;;;27.08;59.50;94263.63;5115411;28;20177;-76
2022/08/22 09:27:00;;;;;;;11.63;6.88;;;;;;;26.87;57.99;94271.69;5112986;28;20752;-74
2022/08/22 09:29:43;;;;;;;10.00;5.80;;;;;;;26.72;61.25;94258.78;5110937;28;20569;-75
2022/08/22 09:32:22;;;;;;;12.00;7.20;;;;;;;26.59;60.25;94258.66;5118649;28;20161;-75
2022/08/22 09:35:23;;;;;;;11.95;6.50;;;;;;;26.37;61.38;94253.56;5111961;28;20562;-76
2022/08/22 09:38:06;;;;;;;11.73;6.47;;;;;;;26.27;60.23;94262.81;5045998;28;20675;-76
2022/08/22 09:40:50;;;;;;;11.35;7.22;;;;;;;26.03;60.74;94262.53;5115771;28;20605;-76
2022/08/22 09:43:24;;;;;;;8.50;6.78;;;;;;;25.76;61.56;94257.53;5115313;28;20237;-76
2022/08/22 09:46:08;;;;;;;8.95;6.20;;;;;;;25.67;61.78;94256.75;5119047;27;20176;-77
2022/08/22 09:48:39;;;;;;;8.38;6.35;;;;;;;25.70;63.67;94256.09;5115414;27;20264;-78
2022/08/22 09:51:29;;;;;;;10.77;6.07;;;;;;;25.61;61.89;94249.91;5123937;27;20169;-76
2022/08/22 09:54:14;;;;;;;14.05;7.50;;;;;;;25.56;62.90;94223.91;5123302;27;20169;-76
2022/08/22 09:56:55;;;;;;;10.55;7.20;;;;;;;25.78;63.24;94242.59;5114726;28;20241;-76
2022/08/22 09:59:26;;;;;;;9.13;6.38;;;;;;;25.81;61.44;94236.56;5121010;27;20185;-77
2022/08/22 10:02:07;;;;;;;14.25;6.13;;;;;;;25.78;63.09;94241.78;5118670;27;20249;-75
2022/08/22 10:04:38;;;;;;;10.90;6.10;;;;;;;25.85;61.76;94234.03;5114128;28;20253;-80
2022/08/22 10:07:31;;;;;;;8.73;6.03;;;;;;;25.92;62.75;94221.63;5123556;27;20173;-79
2022/08/22 10:10:05;;;;;;;9.80;6.35;;;;;;;26.23;64.01;94223.22;5124166;27;20218;-80
2022/08/22 10:13:02;;;;;;;11.07;7.25;;;;;;;26.57;61.23;94223.09;5124474;27;20191;-79
2022/08/22 10:15:34;;;;;;;9.63;6.70;;;;;;;26.73;59.00;94217.13;5130239;27;20681;-79
2022/08/22 10:18:47;;;;;;;11.10;6.18;;;;;;;26.71;58.92;94206.66;5116617;27;20280;-77
2022/08/22 10:21:19;;;;;;;9.88;6.45;;;;;;;26.83;58.94;94222.13;5117471;27;20220;-79
2022/08/22 10:23:54;;;;;;;9.93;6.35;;;;;;;26.50;58.34;94185.03;5127377;27;20164;-79
2022/08/22 10:26:43;;;;;;;10.02;6.30;;;;;;;26.60;58.16;94216.25;5106441;28;20279;-79
2022/08/22 10:29:30;;;;;;;11.45;6.88;;;;;;;26.43;60.77;94211.75;5126208;27;20181;-78
2022/08/22 10:32:33;;;;;;;8.70;6.30;;;;;;;26.18;60.21;94208.03;5109105;28;20264;-80
2022/08/22 10:35:21;;;;;;;8.27;5.70;;;;;;;26.13;60.58;94199.31;5124165;27;20321;-80
2022/08/22 10:37:57;;;;;;;10.15;5.88;;;;;;;26.32;62.41;94198.94;5130495;27;20279;-80
2022/08/22 10:41:01;;;;;;;11.05;6.53;;;;;;;26.55;63.27;94194.84;5124500;27;20547;-79
2022/08/22 10:43:49;;;;;;;11.75;7.00;;;;;;;26.76;61.00;94195.66;5125975;27;20181;-80
2022/08/22 10:46:27;;;;;;;9.15;6.70;;;;;;;26.91;61.24;94186.97;5126325;27;20180;-81
2022/08/22 10:48:59;;;;;;;11.27;6.28;;;;;;;26.89;57.84;94169.50;5103831;28;20176;-78
2022/08/22 10:51:44;;;;;;;12.68;6.32;;;;;;;26.97;58.58;94179.50;5132272;27;20180;-79
2022/08/22 10:54:31;;;;;;;7.38;5.97;;;;;;;27.06;56.82;94182.13;5123689;27;20176;-78
2022/08/22 10:57:23;;;;;;;8.48;6.18;;;;;;;26.68;56.33;94129.78;5128353;27;20573;-78
2022/08/22 11:00:12;;;;;;;8.30;6.25;;;;;;;27.09;56.46;94187.63;5127026;27;20233;-78
2022/08/22 11:03:23;;;;;;;9.90;6.18;;;;;;;26.91;58.07;94186.19;5107941;27;20256;-79
2022/08/22 11:05:51;;;;;;;12.68;6.97;;;;;;;26.57;58.34;94150.19;5048710;28;20292;-81
2022/08/22 11:08:44;;;;;;;10.45;6.28;;;;;;;26.68;59.21;94189.19;5039939;28;20180;-79
2022/08/22 11:11:31;;;;;;;12.43;6.45;;;;;;;26.83;61.07;94187.00;5106393;27;20184;-78
2022/08/22 11:14:21;;;;;;;12.70;6.30;;;;;;;27.11;60.24;94173.78;5123311;27;20604;-79
2022/08/22 11:16:47;;;;;;;12.85;7.20;;;;;;;27.38;61.12;94176.72;5124142;27;20189;-80
2022/08/22 11:19:25;;;;;;;11.32;7.22;;;;;;;27.46;57.04;94187.78;5126409;27;20206;-78
2022/08/22 11:22:18;;;;;;;9.25;6.68;;;;;;;27.48;59.83;94186.34;5134700;27;20236;-78
2022/08/22 11:24:55;;;;;;;12.50;6.13;;;;;;;27.69;58.50;94183.59;5126325;27;20176;-77
2022/08/22 11:27:54;;;;;;;12.40;8.40;;;;;;;27.81;58.86;94177.44;5134167;27;20179;-76
2022/08/22 11:30:32;;;;;;;13.63;7.05;;;;;;;27.71;57.44;94167.81;5133654;27;20211;-76
2022/08/22 11:33:13;;;;;;;8.43;6.00;;;;;;;27.65;55.87;94175.38;5133426;27;20193;-75
2022/08/22 11:35:46;;;;;;;11.77;6.22;;;;;;;27.47;56.33;94162.31;5125831;27;20357;-76
2022/08/22 11:38:34;;;;;;;8.73;6.15;;;;;;;27.57;56.91;94181.66;5123279;27;20196;-77
2022/08/22 11:41:23;;;;;;;10.68;6.90;;;;;;;27.41;57.46;94177.97;5133296;27;20647;-77
2022/08/22 11:44:00;;;;;;;17.80;7.28;;;;;;;27.31;56.41;94175.69;5119716;27;20660;-77
2022/08/22 11:46:36;;;;;;;10.63;6.85;;;;;;;27.13;56.90;94166.16;5112901;27;20268;-77
2022/08/22 11:49:17;;;;;;;9.75;6.40;;;;;;;27.01;58.45;94164.97;5129415;27;20176;-77
2022/08/22 11:51:45;;;;;;;14.25;6.82;;;;;;;26.84;58.51;94165.06;5114666;27;20200;-77
2022/08/22 11:54:28;;;;;;;13.30;7.00;;;;;;;26.79;58.99;94156.41;5133934;27;20207;-77
2022/08/22 11:57:07;;;;;;;11.10;6.65;;;;;;;26.67;60.81;94144.41;5119292;27;20283;-77
2022/08/22 11:59:41;;;;;;;9.48;6.35;;;;;;;26.74;60.55;94164.69;5132157;27;20171;-77
2022/08/22 12:02:25;;;;;;;10.85;6.50;;;;;;;26.61;58.13;94159.22;5126780;27;20176;-77
2022/08/22 12:05:21;;;;;;;12.98;6.88;;;;;;;26.40;59.30;94163.78;5121603;27;20196;-77
2022/08/22 12:07:59;;;;;;;9.35;6.88;;;;;;;26.33;63.45;94168.91;5130096;27;20678;-77
2022/08/22 12:10:31;;;;;;;10.95;7.18;;;;;;;25.92;65.30;94146.09;5121162;27;20172;-76
2022/08/22 12:13:08;;;;;;;13.77;7.63;;;;;;;25.97;68.71;94158.59;5113098;28;20628;-77
2022/08/22 12:15:42;;;;;;;16.83;8.20;;;;;;;25.76;70.82;94158.53;5112563;28;20169;-76
2022/08/22 12:18:39;;;;;;;13.55;8.52;;;;;;;25.26;71.39;94149.41;5112167;28;20188;-76
2022/08/22 12:21:40;;;;;;;9.80;7.45;;;;;;;24.83;72.70;94142.94;5124794;27;20172;-76
2022/08/22 12:24:27;;;;;;;10.52;7.60;;;;;;;24.75;75.03;94135.66;5080251;27;20622;-76
2022/08/22 12:27:00;;;;;;;15.07;8.27;;;;;;;24.95;78.88;94136.97;5132302;27;20698;-76
2022/08/22 12:29:32;;;;;;;12.27;8.02;;;;;;;25.03;73.89;94124.59;5112122;28;20180;-76
2022/08/22 12:31:57;;;;;;;12.07;7.68;;;;;;;25.31;74.72;94130.41;5118889;27;20188;-77